sensor_id;sensor_type;location;lat;lon;timestamp;P1;durP1;ratioP1;P2;durP2;ratioP2
10491;SDS011;5293;51.464;-2.566;2023-08-08T00:00:35;2.47;;;1.40;;
10491;SDS011;5293;51.464;-2.566;2023-08-08T00:03:01;3.33;;;1.20;;
10491;SDS011;5293;51.464;-2.566;2023-08-08T00:05:26;2.23;;;1.23;;
10491;SDS011;5293;51.464;-2.566;2023-08-08T00:07:52;2.90;;;1.10;;
10491;SDS011;5293;51.464;-2.566;2023-08-08T00:10:18;2.53;;;1.33;;
10491;SDS011;5293;51.464;-2.566;2023-08-08T00:12:43;2.63;;;1.43;;
10491;SDS011;5293;51.464;-2.566;2023-08-08T00:15:09;2.77;;;1.23;;
10491;SDS011;5293;51.464;-2.566;2023-08-08T00:17:35;2.50;;;1.70;;
10491;SDS011;5293;51.464;-2.566;2023-08-08T00:20:01;3.53;;;1.80;;
10491;SDS011;5293;51.464;-2.566;2023-08-08T00:22:27;4.63;;;1.83;;
10491;SDS011;5293;51.464;-2.566;2023-08-08T00:24:52;5.63;;;1.97;;
10491;SDS011;5293;51.464;-2.566;2023-08-08T00:27:18;2.20;;;1.67;;
10491;SDS011;5293;51.464;-2.566;2023-08-08T00:29:44;3.23;;;1.63;;
10491;SDS011;5293;51.464;-2.566;2023-08-08T00:32:10;3.20;;;1.50;;
10491;SDS011;5293;51.464;-2.566;2023-08-08T00:34:36;3.17;;;1.33;;
10491;SDS011;5293;51.464;-2.566;2023-08-08T00:37:02;1.93;;;1.47;;
10491;SDS011;5293;51.464;-2.566;2023-08-08T00:39:27;2.17;;;1.30;;
10491;SDS011;5293;51.464;-2.566;2023-08-08T00:41:53;1.53;;;1.43;;
10491;SDS011;5293;51.464;-2.566;2023-08-08T00:44:19;3.97;;;2.00;;
10491;SDS011;5293;51.464;-2.566;2023-08-08T00:46:44;6.43;;;2.17;;
10491;SDS011;5293;51.464;-2.566;2023-08-08T00:49:10;1.60;;;1.47;;
10491;SDS011;5293;51.464;-2.566;2023-08-08T00:51:36;4.73;;;1.70;;
10491;SDS011;5293;51.464;-2.566;2023-08-08T00:54:02;2.63;;;1.50;;
10491;SDS011;5293;51.464;-2.566;2023-08-08T00:56:29;2.67;;;1.43;;
10491;SDS011;5293;51.464;-2.566;2023-08-08T00:58:55;2.10;;;1.60;;
10491;SDS011;5293;51.464;-2.566;2023-08-08T01:01:21;1.93;;;1.50;;
10491;SDS011;5293;51.464;-2.566;2023-08-08T01:03:47;2.00;;;1.70;;
10491;SDS011;5293;51.464;-2.566;2023-08-08T01:06:19;4.23;;;1.73;;
10491;SDS011;5293;51.464;-2.566;2023-08-08T01:08:47;3.73;;;1.60;;
10491;SDS011;5293;51.464;-2.566;2023-08-08T01:11:25;1.70;;;1.30;;
10491;SDS011;5293;51.464;-2.566;2023-08-08T01:13:54;2.33;;;1.33;;
10491;SDS011;5293;51.464;-2.566;2023-08-08T01:16:21;3.43;;;1.50;;
10491;SDS011;5293;51.464;-2.566;2023-08-08T01:18:48;2.90;;;1.50;;
10491;SDS011;5293;51.464;-2.566;2023-08-08T01:21:15;5.27;;;1.57;;
10491;SDS011;5293;51.464;-2.566;2023-08-08T01:26:21;2.47;;;1.60;;
10491;SDS011;5293;51.464;-2.566;2023-08-08T01:28:48;4.23;;;1.30;;
10491;SDS011;5293;51.464;-2.566;2023-08-08T01:31:18;2.47;;;1.30;;
10491;SDS011;5293;51.464;-2.566;2023-08-08T01:33:43;5.83;;;1.30;;
10491;SDS011;5293;51.464;-2.566;2023-08-08T01:36:19;4.27;;;0.97;;
10491;SDS011;5293;51.464;-2.566;2023-08-08T01:38:49;2.03;;;1.60;;
10491;SDS011;5293;51.464;-2.566;2023-08-08T01:41:17;3.13;;;1.10;;
10491;SDS011;5293;51.464;-2.566;2023-08-08T01:43:44;3.53;;;1.20;;
10491;SDS011;5293;51.464;-2.566;2023-08-08T01:46:10;2.03;;;1.10;;
10491;SDS011;5293;51.464;-2.566;2023-08-08T01:48:36;2.57;;;1.27;;
10491;SDS011;5293;51.464;-2.566;2023-08-08T01:51:02;3.20;;;0.93;;
10491;SDS011;5293;51.464;-2.566;2023-08-08T01:53:28;1.53;;;1.20;;
10491;SDS011;5293;51.464;-2.566;2023-08-08T01:55:53;1.27;;;0.93;;
10491;SDS011;5293;51.464;-2.566;2023-08-08T01:58:19;1.80;;;1.20;;
10491;SDS011;5293;51.464;-2.566;2023-08-08T02:00:45;1.03;;;0.93;;
10491;SDS011;5293;51.464;-2.566;2023-08-08T02:03:11;1.97;;;0.73;;
10491;SDS011;5293;51.464;-2.566;2023-08-08T02:05:37;1.03;;;0.97;;
10491;SDS011;5293;51.464;-2.566;2023-08-08T02:08:03;5.77;;;0.90;;
10491;SDS011;5293;51.464;-2.566;2023-08-08T02:10:29;2.73;;;1.10;;
10491;SDS011;5293;51.464;-2.566;2023-08-08T02:12:55;1.73;;;1.00;;
10491;SDS011;5293;51.464;-2.566;2023-08-08T02:15:21;2.20;;;0.90;;
10491;SDS011;5293;51.464;-2.566;2023-08-08T02:17:46;3.03;;;1.10;;
10491;SDS011;5293;51.464;-2.566;2023-08-08T02:20:12;1.30;;;1.17;;
10491;SDS011;5293;51.464;-2.566;2023-08-08T02:22:38;1.73;;;1.23;;
10491;SDS011;5293;51.464;-2.566;2023-08-08T02:25:04;1.63;;;0.60;;
10491;SDS011;5293;51.464;-2.566;2023-08-08T02:27:30;2.00;;;1.00;;
10491;SDS011;5293;51.464;-2.566;2023-08-08T02:29:55;0.80;;;0.80;;
10491;SDS011;5293;51.464;-2.566;2023-08-08T02:32:22;2.40;;;0.70;;
10491;SDS011;5293;51.464;-2.566;2023-08-08T02:34:48;1.97;;;0.73;;
10491;SDS011;5293;51.464;-2.566;2023-08-08T02:37:14;4.57;;;0.90;;
10491;SDS011;5293;51.464;-2.566;2023-08-08T02:39:41;1.57;;;0.80;;
10491;SDS011;5293;51.464;-2.566;2023-08-08T02:42:09;2.47;;;1.17;;
10491;SDS011;5293;51.464;-2.566;2023-08-08T02:44:35;1.57;;;1.00;;
10491;SDS011;5293;51.464;-2.566;2023-08-08T02:47:01;4.83;;;1.00;;
10491;SDS011;5293;51.464;-2.566;2023-08-08T02:49:26;1.73;;;0.97;;
10491;SDS011;5293;51.464;-2.566;2023-08-08T02:51:52;0.70;;;0.70;;
10491;SDS011;5293;51.464;-2.566;2023-08-08T02:54:18;1.23;;;0.90;;
10491;SDS011;5293;51.464;-2.566;2023-08-08T02:56:43;3.10;;;1.00;;
10491;SDS011;5293;51.464;-2.566;2023-08-08T02:59:09;1.37;;;0.93;;
10491;SDS011;5293;51.464;-2.566;2023-08-08T03:01:35;1.20;;;1.03;;
10491;SDS011;5293;51.464;-2.566;2023-08-08T03:04:04;2.23;;;0.90;;
10491;SDS011;5293;51.464;-2.566;2023-08-08T03:06:30;2.63;;;1.20;;
10491;SDS011;5293;51.464;-2.566;2023-08-08T03:08:56;2.27;;;1.10;;
10491;SDS011;5293;51.464;-2.566;2023-08-08T03:11:21;1.87;;;0.80;;
10491;SDS011;5293;51.464;-2.566;2023-08-08T03:13:47;2.67;;;1.13;;
10491;SDS011;5293;51.464;-2.566;2023-08-08T03:16:13;3.60;;;1.20;;
10491;SDS011;5293;51.464;-2.566;2023-08-08T03:18:38;1.50;;;1.00;;
10491;SDS011;5293;51.464;-2.566;2023-08-08T03:21:04;1.70;;;1.20;;
10491;SDS011;5293;51.464;-2.566;2023-08-08T03:23:30;2.43;;;1.17;;
10491;SDS011;5293;51.464;-2.566;2023-08-08T03:25:56;1.67;;;1.07;;
10491;SDS011;5293;51.464;-2.566;2023-08-08T03:28:21;0.97;;;0.87;;
10491;SDS011;5293;51.464;-2.566;2023-08-08T03:30:47;0.97;;;0.93;;
10491;SDS011;5293;51.464;-2.566;2023-08-08T03:33:13;1.17;;;1.17;;
10491;SDS011;5293;51.464;-2.566;2023-08-08T03:35:38;1.13;;;1.03;;
10491;SDS011;5293;51.464;-2.566;2023-08-08T03:38:04;1.53;;;1.40;;
10491;SDS011;5293;51.464;-2.566;2023-08-08T03:40:30;2.53;;;1.20;;
10491;SDS011;5293;51.464;-2.566;2023-08-08T03:42:56;1.27;;;1.00;;
10491;SDS011;5293;51.464;-2.566;2023-08-08T03:45:21;1.50;;;1.20;;
10491;SDS011;5293;51.464;-2.566;2023-08-08T03:47:47;2.27;;;1.10;;
10491;SDS011;5293;51.464;-2.566;2023-08-08T03:50:13;2.03;;;1.23;;
10491;SDS011;5293;51.464;-2.566;2023-08-08T03:52:38;2.37;;;1.20;;
10491;SDS011;5293;51.464;-2.566;2023-08-08T03:55:04;0.70;;;0.70;;
10491;SDS011;5293;51.464;-2.566;2023-08-08T03:57:30;0.80;;;0.80;;
10491;SDS011;5293;51.464;-2.566;2023-08-08T03:59:56;1.57;;;1.13;;
10491;SDS011;5293;51.464;-2.566;2023-08-08T04:02:22;2.60;;;1.00;;
10491;SDS011;5293;51.464;-2.566;2023-08-08T04:04:50;1.20;;;1.00;;
10491;SDS011;5293;51.464;-2.566;2023-08-08T04:07:15;1.77;;;0.67;;
10491;SDS011;5293;51.464;-2.566;2023-08-08T04:09:41;1.13;;;1.00;;
10491;SDS011;5293;51.464;-2.566;2023-08-08T04:12:07;1.47;;;0.97;;
10491;SDS011;5293;51.464;-2.566;2023-08-08T04:14:33;3.67;;;1.23;;
10491;SDS011;5293;51.464;-2.566;2023-08-08T04:16:59;2.27;;;1.37;;
10491;SDS011;5293;51.464;-2.566;2023-08-08T04:19:24;1.87;;;1.10;;
10491;SDS011;5293;51.464;-2.566;2023-08-08T04:21:50;1.90;;;1.40;;
10491;SDS011;5293;51.464;-2.566;2023-08-08T04:24:15;1.23;;;1.13;;
10491;SDS011;5293;51.464;-2.566;2023-08-08T04:26:41;1.43;;;1.33;;
10491;SDS011;5293;51.464;-2.566;2023-08-08T04:29:07;1.20;;;1.10;;
10491;SDS011;5293;51.464;-2.566;2023-08-08T04:31:32;1.70;;;1.30;;
10491;SDS011;5293;51.464;-2.566;2023-08-08T04:33:59;1.53;;;1.27;;
10491;SDS011;5293;51.464;-2.566;2023-08-08T04:36:29;2.07;;;1.03;;
10491;SDS011;5293;51.464;-2.566;2023-08-08T04:38:55;1.47;;;1.37;;
10491;SDS011;5293;51.464;-2.566;2023-08-08T04:41:20;2.30;;;1.50;;
10491;SDS011;5293;51.464;-2.566;2023-08-08T04:43:46;1.00;;;1.00;;
10491;SDS011;5293;51.464;-2.566;2023-08-08T04:46:12;1.33;;;1.23;;
10491;SDS011;5293;51.464;-2.566;2023-08-08T04:48:38;2.97;;;1.30;;
10491;SDS011;5293;51.464;-2.566;2023-08-08T04:51:04;2.27;;;1.70;;
10491;SDS011;5293;51.464;-2.566;2023-08-08T04:53:30;3.97;;;1.50;;
10491;SDS011;5293;51.464;-2.566;2023-08-08T04:55:56;2.93;;;1.33;;
10491;SDS011;5293;51.464;-2.566;2023-08-08T04:58:21;1.33;;;1.23;;
10491;SDS011;5293;51.464;-2.566;2023-08-08T05:00:47;2.53;;;1.80;;
10491;SDS011;5293;51.464;-2.566;2023-08-08T05:03:13;2.37;;;1.13;;
10491;SDS011;5293;51.464;-2.566;2023-08-08T05:05:39;3.03;;;1.73;;
10491;SDS011;5293;51.464;-2.566;2023-08-08T05:08:04;1.67;;;1.57;;
10491;SDS011;5293;51.464;-2.566;2023-08-08T05:10:30;1.73;;;1.40;;
10491;SDS011;5293;51.464;-2.566;2023-08-08T05:12:56;2.70;;;1.50;;
10491;SDS011;5293;51.464;-2.566;2023-08-08T05:15:22;2.17;;;1.97;;
10491;SDS011;5293;51.464;-2.566;2023-08-08T05:17:48;2.27;;;2.00;;
10491;SDS011;5293;51.464;-2.566;2023-08-08T05:20:13;2.27;;;2.00;;
10491;SDS011;5293;51.464;-2.566;2023-08-08T05:22:40;3.23;;;2.10;;
10491;SDS011;5293;51.464;-2.566;2023-08-08T05:25:06;3.53;;;2.17;;
10491;SDS011;5293;51.464;-2.566;2023-08-08T05:27:31;3.93;;;2.87;;
10491;SDS011;5293;51.464;-2.566;2023-08-08T05:29:57;2.87;;;2.50;;
10491;SDS011;5293;51.464;-2.566;2023-08-08T05:32:23;2.83;;;2.40;;
10491;SDS011;5293;51.464;-2.566;2023-08-08T05:34:50;4.87;;;2.60;;
10491;SDS011;5293;51.464;-2.566;2023-08-08T05:37:16;4.77;;;2.60;;
10491;SDS011;5293;51.464;-2.566;2023-08-08T05:39:42;4.53;;;2.73;;
10491;SDS011;5293;51.464;-2.566;2023-08-08T05:42:07;2.73;;;2.40;;
10491;SDS011;5293;51.464;-2.566;2023-08-08T05:44:33;4.83;;;2.67;;
10491;SDS011;5293;51.464;-2.566;2023-08-08T05:46:59;3.47;;;2.33;;
10491;SDS011;5293;51.464;-2.566;2023-08-08T05:49:24;4.47;;;2.50;;
10491;SDS011;5293;51.464;-2.566;2023-08-08T05:51:50;3.40;;;2.40;;
10491;SDS011;5293;51.464;-2.566;2023-08-08T05:54:15;4.93;;;2.23;;
10491;SDS011;5293;51.464;-2.566;2023-08-08T05:56:41;3.60;;;2.27;;
10491;SDS011;5293;51.464;-2.566;2023-08-08T05:59:07;4.70;;;2.63;;
10491;SDS011;5293;51.464;-2.566;2023-08-08T06:01:32;6.80;;;2.30;;
10491;SDS011;5293;51.464;-2.566;2023-08-08T06:03:59;3.93;;;2.20;;
10491;SDS011;5293;51.464;-2.566;2023-08-08T06:06:25;6.17;;;2.70;;
10491;SDS011;5293;51.464;-2.566;2023-08-08T06:08:51;3.27;;;2.47;;
10491;SDS011;5293;51.464;-2.566;2023-08-08T06:11:17;3.40;;;2.17;;
10491;SDS011;5293;51.464;-2.566;2023-08-08T06:13:43;2.33;;;2.10;;
10491;SDS011;5293;51.464;-2.566;2023-08-08T06:16:09;4.53;;;2.00;;
10491;SDS011;5293;51.464;-2.566;2023-08-08T06:18:34;2.93;;;2.00;;
10491;SDS011;5293;51.464;-2.566;2023-08-08T06:21:01;4.93;;;2.27;;
10491;SDS011;5293;51.464;-2.566;2023-08-08T06:23:27;2.20;;;1.90;;
10491;SDS011;5293;51.464;-2.566;2023-08-08T06:25:52;2.43;;;1.93;;
10491;SDS011;5293;51.464;-2.566;2023-08-08T06:28:18;3.03;;;2.00;;
10491;SDS011;5293;51.464;-2.566;2023-08-08T06:30:44;2.80;;;2.07;;
10491;SDS011;5293;51.464;-2.566;2023-08-08T06:33:10;2.90;;;2.00;;
10491;SDS011;5293;51.464;-2.566;2023-08-08T06:35:35;1.90;;;1.70;;
10491;SDS011;5293;51.464;-2.566;2023-08-08T06:38:01;2.17;;;1.80;;
10491;SDS011;5293;51.464;-2.566;2023-08-08T06:40:27;3.77;;;1.50;;
10491;SDS011;5293;51.464;-2.566;2023-08-08T06:42:54;3.43;;;1.73;;
10491;SDS011;5293;51.464;-2.566;2023-08-08T06:45:20;3.13;;;1.80;;
10491;SDS011;5293;51.464;-2.566;2023-08-08T06:47:46;4.20;;;1.77;;
10491;SDS011;5293;51.464;-2.566;2023-08-08T06:50:12;4.03;;;2.40;;
10491;SDS011;5293;51.464;-2.566;2023-08-08T06:52:38;3.53;;;1.90;;
10491;SDS011;5293;51.464;-2.566;2023-08-08T06:55:04;4.63;;;2.27;;
10491;SDS011;5293;51.464;-2.566;2023-08-08T06:57:33;1.47;;;1.37;;
10491;SDS011;5293;51.464;-2.566;2023-08-08T06:59:59;2.67;;;1.70;;
10491;SDS011;5293;51.464;-2.566;2023-08-08T07:02:25;2.07;;;1.60;;
10491;SDS011;5293;51.464;-2.566;2023-08-08T07:04:51;1.90;;;1.70;;
10491;SDS011;5293;51.464;-2.566;2023-08-08T07:07:17;1.60;;;1.50;;
10491;SDS011;5293;51.464;-2.566;2023-08-08T07:09:42;1.60;;;1.50;;
10491;SDS011;5293;51.464;-2.566;2023-08-08T07:12:08;3.67;;;1.60;;
10491;SDS011;5293;51.464;-2.566;2023-08-08T07:14:34;3.43;;;1.80;;
10491;SDS011;5293;51.464;-2.566;2023-08-08T07:17:00;1.50;;;1.40;;
10491;SDS011;5293;51.464;-2.566;2023-08-08T07:19:28;2.67;;;1.47;;
10491;SDS011;5293;51.464;-2.566;2023-08-08T07:21:53;4.03;;;1.60;;
10491;SDS011;5293;51.464;-2.566;2023-08-08T07:24:19;1.50;;;1.33;;
10491;SDS011;5293;51.464;-2.566;2023-08-08T07:26:45;1.80;;;1.37;;
10491;SDS011;5293;51.464;-2.566;2023-08-08T07:29:11;2.10;;;1.80;;
10491;SDS011;5293;51.464;-2.566;2023-08-08T07:31:37;2.30;;;1.27;;
10491;SDS011;5293;51.464;-2.566;2023-08-08T07:34:03;1.50;;;1.40;;
10491;SDS011;5293;51.464;-2.566;2023-08-08T07:36:28;2.17;;;1.40;;
10491;SDS011;5293;51.464;-2.566;2023-08-08T07:38:54;1.53;;;1.03;;
10491;SDS011;5293;51.464;-2.566;2023-08-08T07:41:25;1.20;;;1.03;;
10491;SDS011;5293;51.464;-2.566;2023-08-08T07:43:51;2.73;;;1.30;;
10491;SDS011;5293;51.464;-2.566;2023-08-08T07:46:17;1.30;;;1.20;;
10491;SDS011;5293;51.464;-2.566;2023-08-08T07:48:43;2.07;;;1.23;;
10491;SDS011;5293;51.464;-2.566;2023-08-08T07:51:09;1.33;;;1.23;;
10491;SDS011;5293;51.464;-2.566;2023-08-08T07:53:34;2.60;;;1.30;;
10491;SDS011;5293;51.464;-2.566;2023-08-08T07:56:00;1.47;;;1.30;;
10491;SDS011;5293;51.464;-2.566;2023-08-08T07:58:26;6.30;;;1.33;;
10491;SDS011;5293;51.464;-2.566;2023-08-08T08:00:52;4.03;;;1.60;;
10491;SDS011;5293;51.464;-2.566;2023-08-08T08:03:18;1.90;;;1.30;;
10491;SDS011;5293;51.464;-2.566;2023-08-08T08:05:44;3.07;;;1.70;;
10491;SDS011;5293;51.464;-2.566;2023-08-08T08:08:10;1.63;;;1.07;;
10491;SDS011;5293;51.464;-2.566;2023-08-08T08:10:36;0.90;;;0.90;;
10491;SDS011;5293;51.464;-2.566;2023-08-08T08:13:01;1.80;;;1.23;;
10491;SDS011;5293;51.464;-2.566;2023-08-08T08:15:27;2.73;;;1.20;;
10491;SDS011;5293;51.464;-2.566;2023-08-08T08:17:53;1.47;;;1.37;;
10491;SDS011;5293;51.464;-2.566;2023-08-08T08:20:19;2.67;;;1.13;;
10491;SDS011;5293;51.464;-2.566;2023-08-08T08:22:45;1.57;;;1.47;;
10491;SDS011;5293;51.464;-2.566;2023-08-08T08:25:11;3.77;;;1.23;;
10491;SDS011;5293;51.464;-2.566;2023-08-08T08:27:37;2.77;;;1.40;;
10491;SDS011;5293;51.464;-2.566;2023-08-08T08:30:03;1.57;;;1.47;;
10491;SDS011;5293;51.464;-2.566;2023-08-08T08:32:33;1.63;;;1.37;;
10491;SDS011;5293;51.464;-2.566;2023-08-08T08:35:02;1.10;;;1.10;;
10491;SDS011;5293;51.464;-2.566;2023-08-08T08:37:31;1.43;;;1.30;;
10491;SDS011;5293;51.464;-2.566;2023-08-08T08:39:57;6.77;;;4.43;;
10491;SDS011;5293;51.464;-2.566;2023-08-08T08:42:23;4.57;;;3.03;;
10491;SDS011;5293;51.464;-2.566;2023-08-08T08:44:51;1.97;;;1.37;;
10491;SDS011;5293;51.464;-2.566;2023-08-08T08:47:21;1.50;;;1.37;;
10491;SDS011;5293;51.464;-2.566;2023-08-08T08:49:47;1.40;;;1.30;;
10491;SDS011;5293;51.464;-2.566;2023-08-08T08:52:13;2.10;;;1.00;;
10491;SDS011;5293;51.464;-2.566;2023-08-08T08:54:39;1.53;;;1.30;;
10491;SDS011;5293;51.464;-2.566;2023-08-08T08:57:05;1.87;;;1.20;;
10491;SDS011;5293;51.464;-2.566;2023-08-08T08:59:30;1.30;;;1.20;;
10491;SDS011;5293;51.464;-2.566;2023-08-08T09:01:56;1.50;;;1.30;;
10491;SDS011;5293;51.464;-2.566;2023-08-08T09:04:22;3.17;;;1.33;;
10491;SDS011;5293;51.464;-2.566;2023-08-08T09:06:49;1.70;;;1.37;;
10491;SDS011;5293;51.464;-2.566;2023-08-08T09:09:15;2.53;;;1.40;;
10491;SDS011;5293;51.464;-2.566;2023-08-08T09:11:46;1.60;;;1.20;;
10491;SDS011;5293;51.464;-2.566;2023-08-08T09:16:43;2.13;;;1.50;;
10491;SDS011;5293;51.464;-2.566;2023-08-08T09:19:09;1.70;;;1.60;;
10491;SDS011;5293;51.464;-2.566;2023-08-08T09:21:34;2.97;;;1.47;;
10491;SDS011;5293;51.464;-2.566;2023-08-08T09:24:00;6.03;;;1.53;;
10491;SDS011;5293;51.464;-2.566;2023-08-08T09:26:25;3.27;;;1.70;;
10491;SDS011;5293;51.464;-2.566;2023-08-08T09:28:53;4.10;;;1.63;;
10491;SDS011;5293;51.464;-2.566;2023-08-08T09:31:18;2.87;;;1.83;;
10491;SDS011;5293;51.464;-2.566;2023-08-08T09:33:44;1.40;;;1.30;;
10491;SDS011;5293;51.464;-2.566;2023-08-08T09:36:14;2.07;;;1.80;;
10491;SDS011;5293;51.464;-2.566;2023-08-08T09:38:40;1.73;;;1.63;;
10491;SDS011;5293;51.464;-2.566;2023-08-08T09:41:06;5.63;;;2.57;;
10491;SDS011;5293;51.464;-2.566;2023-08-08T09:43:32;1.90;;;1.80;;
10491;SDS011;5293;51.464;-2.566;2023-08-08T09:45:58;2.50;;;1.67;;
10491;SDS011;5293;51.464;-2.566;2023-08-08T09:48:29;1.97;;;1.87;;
10491;SDS011;5293;51.464;-2.566;2023-08-08T09:50:57;2.10;;;1.90;;
10491;SDS011;5293;51.464;-2.566;2023-08-08T09:53:25;3.30;;;2.20;;
10491;SDS011;5293;51.464;-2.566;2023-08-08T09:55:53;2.10;;;1.90;;
10491;SDS011;5293;51.464;-2.566;2023-08-08T09:58:22;3.13;;;2.00;;
10491;SDS011;5293;51.464;-2.566;2023-08-08T10:00:49;4.90;;;2.23;;
10491;SDS011;5293;51.464;-2.566;2023-08-08T10:03:18;3.73;;;2.17;;
10491;SDS011;5293;51.464;-2.566;2023-08-08T10:05:44;2.60;;;2.40;;
10491;SDS011;5293;51.464;-2.566;2023-08-08T10:08:10;4.07;;;2.83;;
10491;SDS011;5293;51.464;-2.566;2023-08-08T10:10:37;2.70;;;2.00;;
10491;SDS011;5293;51.464;-2.566;2023-08-08T10:13:03;3.90;;;2.00;;
10491;SDS011;5293;51.464;-2.566;2023-08-08T10:15:30;4.73;;;2.10;;
10491;SDS011;5293;51.464;-2.566;2023-08-08T10:17:56;2.13;;;1.80;;
10491;SDS011;5293;51.464;-2.566;2023-08-08T10:20:26;3.50;;;2.17;;
10491;SDS011;5293;51.464;-2.566;2023-08-08T10:22:52;5.57;;;2.03;;
10491;SDS011;5293;51.464;-2.566;2023-08-08T10:25:26;4.00;;;1.87;;
10491;SDS011;5293;51.464;-2.566;2023-08-08T10:28:07;3.53;;;2.38;;
10491;SDS011;5293;51.464;-2.566;2023-08-08T10:30:45;2.90;;;1.93;;
10491;SDS011;5293;51.464;-2.566;2023-08-08T10:33:16;3.77;;;2.27;;
10491;SDS011;5293;51.464;-2.566;2023-08-08T10:35:49;3.23;;;2.50;;
10491;SDS011;5293;51.464;-2.566;2023-08-08T10:38:25;2.27;;;2.07;;
10491;SDS011;5293;51.464;-2.566;2023-08-08T10:41:02;2.80;;;1.83;;
10491;SDS011;5293;51.464;-2.566;2023-08-08T10:43:28;4.65;;;2.60;;
10491;SDS011;5293;51.464;-2.566;2023-08-08T10:45:58;3.43;;;2.27;;
10491;SDS011;5293;51.464;-2.566;2023-08-08T10:48:26;5.37;;;2.20;;
10491;SDS011;5293;51.464;-2.566;2023-08-08T10:50:57;2.13;;;1.80;;
10491;SDS011;5293;51.464;-2.566;2023-08-08T10:53:27;5.47;;;2.03;;
10491;SDS011;5293;51.464;-2.566;2023-08-08T10:56:01;4.23;;;2.00;;
10491;SDS011;5293;51.464;-2.566;2023-08-08T10:58:38;2.20;;;1.63;;
10491;SDS011;5293;51.464;-2.566;2023-08-08T11:01:07;4.37;;;1.90;;
10491;SDS011;5293;51.464;-2.566;2023-08-08T11:03:34;4.90;;;1.57;;
10491;SDS011;5293;51.464;-2.566;2023-08-08T11:06:02;2.13;;;1.47;;
10491;SDS011;5293;51.464;-2.566;2023-08-08T11:08:29;1.87;;;1.30;;
10491;SDS011;5293;51.464;-2.566;2023-08-08T11:10:58;1.10;;;1.10;;
10491;SDS011;5293;51.464;-2.566;2023-08-08T11:13:24;1.27;;;1.13;;
10491;SDS011;5293;51.464;-2.566;2023-08-08T11:15:50;1.47;;;1.03;;
10491;SDS011;5293;51.464;-2.566;2023-08-08T11:18:16;1.80;;;1.27;;
10491;SDS011;5293;51.464;-2.566;2023-08-08T11:20:42;1.50;;;1.40;;
10491;SDS011;5293;51.464;-2.566;2023-08-08T11:23:09;1.20;;;1.10;;
10491;SDS011;5293;51.464;-2.566;2023-08-08T11:25:39;3.70;;;1.30;;
10491;SDS011;5293;51.464;-2.566;2023-08-08T11:28:09;2.50;;;1.30;;
10491;SDS011;5293;51.464;-2.566;2023-08-08T11:30:42;1.70;;;1.50;;
10491;SDS011;5293;51.464;-2.566;2023-08-08T11:33:12;2.83;;;1.30;;
10491;SDS011;5293;51.464;-2.566;2023-08-08T11:35:42;0.97;;;0.93;;
10491;SDS011;5293;51.464;-2.566;2023-08-08T11:38:10;2.23;;;1.20;;
10491;SDS011;5293;51.464;-2.566;2023-08-08T11:40:37;1.23;;;1.20;;
10491;SDS011;5293;51.464;-2.566;2023-08-08T11:43:03;2.03;;;1.30;;
10491;SDS011;5293;51.464;-2.566;2023-08-08T11:45:30;1.20;;;1.00;;
10491;SDS011;5293;51.464;-2.566;2023-08-08T11:47:56;1.53;;;1.30;;
10491;SDS011;5293;51.464;-2.566;2023-08-08T11:50:23;1.33;;;1.00;;
10491;SDS011;5293;51.464;-2.566;2023-08-08T11:52:53;1.57;;;1.33;;
10491;SDS011;5293;51.464;-2.566;2023-08-08T11:55:19;2.80;;;1.10;;
10491;SDS011;5293;51.464;-2.566;2023-08-08T11:57:47;1.50;;;1.10;;
10491;SDS011;5293;51.464;-2.566;2023-08-08T12:00:14;0.90;;;0.90;;
10491;SDS011;5293;51.464;-2.566;2023-08-08T12:02:44;1.07;;;1.00;;
10491;SDS011;5293;51.464;-2.566;2023-08-08T12:05:11;1.00;;;1.00;;
10491;SDS011;5293;51.464;-2.566;2023-08-08T12:07:38;1.23;;;1.03;;
10491;SDS011;5293;51.464;-2.566;2023-08-08T12:10:12;2.37;;;1.00;;
10491;SDS011;5293;51.464;-2.566;2023-08-08T12:12:42;1.47;;;1.00;;
10491;SDS011;5293;51.464;-2.566;2023-08-08T12:15:09;1.10;;;0.93;;
10491;SDS011;5293;51.464;-2.566;2023-08-08T12:17:38;1.23;;;0.80;;
10491;SDS011;5293;51.464;-2.566;2023-08-08T12:20:05;1.27;;;1.00;;
10491;SDS011;5293;51.464;-2.566;2023-08-08T12:22:32;1.00;;;0.97;;
10491;SDS011;5293;51.464;-2.566;2023-08-08T12:24:58;0.80;;;0.70;;
10491;SDS011;5293;51.464;-2.566;2023-08-08T12:27:24;1.77;;;1.00;;
10491;SDS011;5293;51.464;-2.566;2023-08-08T12:29:50;1.03;;;0.70;;
10491;SDS011;5293;51.464;-2.566;2023-08-08T12:32:16;0.83;;;0.67;;
10491;SDS011;5293;51.464;-2.566;2023-08-08T12:34:42;0.50;;;0.50;;
10491;SDS011;5293;51.464;-2.566;2023-08-08T12:37:07;1.03;;;0.53;;
10491;SDS011;5293;51.464;-2.566;2023-08-08T12:39:33;0.70;;;0.50;;
10491;SDS011;5293;51.464;-2.566;2023-08-08T12:41:59;0.63;;;0.60;;
10491;SDS011;5293;51.464;-2.566;2023-08-08T12:44:24;0.50;;;0.50;;
10491;SDS011;5293;51.464;-2.566;2023-08-08T12:46:50;0.47;;;0.40;;
10491;SDS011;5293;51.464;-2.566;2023-08-08T12:49:16;2.70;;;0.70;;
10491;SDS011;5293;51.464;-2.566;2023-08-08T12:51:41;1.17;;;0.50;;
10491;SDS011;5293;51.464;-2.566;2023-08-08T12:54:07;0.53;;;0.40;;
10491;SDS011;5293;51.464;-2.566;2023-08-08T12:56:32;0.70;;;0.50;;
10491;SDS011;5293;51.464;-2.566;2023-08-08T12:58:58;0.40;;;0.30;;
10491;SDS011;5293;51.464;-2.566;2023-08-08T13:01:24;0.80;;;0.53;;
10491;SDS011;5293;51.464;-2.566;2023-08-08T13:03:50;0.73;;;0.73;;
10491;SDS011;5293;51.464;-2.566;2023-08-08T13:06:16;0.70;;;0.60;;
10491;SDS011;5293;51.464;-2.566;2023-08-08T13:08:41;0.67;;;0.67;;
10491;SDS011;5293;51.464;-2.566;2023-08-08T13:11:07;0.90;;;0.50;;
10491;SDS011;5293;51.464;-2.566;2023-08-08T13:13:33;2.77;;;0.73;;
10491;SDS011;5293;51.464;-2.566;2023-08-08T13:15:58;2.27;;;0.80;;
10491;SDS011;5293;51.464;-2.566;2023-08-08T13:18:24;1.00;;;0.77;;
10491;SDS011;5293;51.464;-2.566;2023-08-08T13:20:50;1.00;;;0.90;;
10491;SDS011;5293;51.464;-2.566;2023-08-08T13:23:15;1.07;;;0.90;;
10491;SDS011;5293;51.464;-2.566;2023-08-08T13:25:41;0.60;;;0.60;;
10491;SDS011;5293;51.464;-2.566;2023-08-08T13:28:07;0.43;;;0.43;;
10491;SDS011;5293;51.464;-2.566;2023-08-08T13:30:33;0.40;;;0.40;;
10491;SDS011;5293;51.464;-2.566;2023-08-08T13:33:00;0.67;;;0.50;;
10491;SDS011;5293;51.464;-2.566;2023-08-08T13:35:26;0.70;;;0.53;;
10491;SDS011;5293;51.464;-2.566;2023-08-08T13:37:51;0.30;;;0.30;;
10491;SDS011;5293;51.464;-2.566;2023-08-08T13:40:19;0.73;;;0.53;;
10491;SDS011;5293;51.464;-2.566;2023-08-08T13:42:45;0.70;;;0.70;;
10491;SDS011;5293;51.464;-2.566;2023-08-08T13:45:13;0.53;;;0.40;;
10491;SDS011;5293;51.464;-2.566;2023-08-08T13:47:39;3.93;;;3.07;;
10491;SDS011;5293;51.464;-2.566;2023-08-08T13:50:05;1.23;;;0.60;;
10491;SDS011;5293;51.464;-2.566;2023-08-08T13:52:32;1.90;;;0.90;;
10491;SDS011;5293;51.464;-2.566;2023-08-08T13:54:58;0.80;;;0.80;;
10491;SDS011;5293;51.464;-2.566;2023-08-08T13:57:24;0.93;;;0.70;;
10491;SDS011;5293;51.464;-2.566;2023-08-08T13:59:51;1.47;;;0.73;;
10491;SDS011;5293;51.464;-2.566;2023-08-08T14:02:16;1.13;;;0.70;;
10491;SDS011;5293;51.464;-2.566;2023-08-08T14:04:43;0.80;;;0.80;;
10491;SDS011;5293;51.464;-2.566;2023-08-08T14:07:10;1.87;;;1.30;;
10491;SDS011;5293;51.464;-2.566;2023-08-08T14:09:36;1.93;;;1.17;;
10491;SDS011;5293;51.464;-2.566;2023-08-08T14:12:02;1.10;;;1.00;;
10491;SDS011;5293;51.464;-2.566;2023-08-08T14:14:28;2.47;;;1.30;;
10491;SDS011;5293;51.464;-2.566;2023-08-08T14:16:53;1.47;;;1.37;;
10491;SDS011;5293;51.464;-2.566;2023-08-08T14:19:19;3.07;;;1.40;;
10491;SDS011;5293;51.464;-2.566;2023-08-08T14:21:45;1.63;;;1.27;;
10491;SDS011;5293;51.464;-2.566;2023-08-08T14:24:11;2.10;;;1.43;;
10491;SDS011;5293;51.464;-2.566;2023-08-08T14:26:36;5.33;;;1.23;;
10491;SDS011;5293;51.464;-2.566;2023-08-08T14:29:02;1.50;;;1.40;;
10491;SDS011;5293;51.464;-2.566;2023-08-08T14:31:29;1.87;;;1.10;;
10491;SDS011;5293;51.464;-2.566;2023-08-08T14:33:55;2.87;;;1.50;;
10491;SDS011;5293;51.464;-2.566;2023-08-08T14:36:21;2.03;;;1.50;;
10491;SDS011;5293;51.464;-2.566;2023-08-08T14:38:47;1.73;;;1.30;;
10491;SDS011;5293;51.464;-2.566;2023-08-08T14:41:12;1.37;;;1.23;;
10491;SDS011;5293;51.464;-2.566;2023-08-08T14:43:38;1.80;;;1.40;;
10491;SDS011;5293;51.464;-2.566;2023-08-08T14:46:04;2.83;;;1.77;;
10491;SDS011;5293;51.464;-2.566;2023-08-08T14:48:30;1.37;;;1.20;;